Time;durP1;ratioP1;P1;durP2;ratioP2;P2;SDS_P1;SDS_P2;PMS_P1;PMS_P2;Temp;Humidity;BMP_temperature;BMP_pressure;BME280_temperature;BME280_humidity;BME280_pressure;Samples;Min_cycle;Max_cycle;Signal;HPM_P1;HPM_P2
2023/04/23 02:45:48;;;;;;;10.65;9.57;;;12.60;99.90;;;;;;6114863;23;20103;-88
2023/04/23 02:48:14;;;;;;;11.02;9.80;;;12.60;99.90;;;;;;6173197;23;20028;-88
2023/04/23 02:51:09;;;;;;;10.95;9.90;;;12.60;99.90;;;;;;6173258;23;20008;-86
2023/04/23 02:53:37;;;;;;;11.77;10.57;;;12.70;99.90;;;;;;6171522;23;20092;-88
2023/04/23 02:56:03;;;;;;;11.80;10.25;;;12.70;99.90;;;;;;6170972;23;20075;-89
2023/04/23 02:58:29;;;;;;;12.23;9.90;;;12.70;99.90;;;;;;6172720;23;20012;-88
2023/04/23 03:00:58;;;;;;;12.50;11.20;;;12.70;99.90;;;;;;6199149;23;20001;-88
2023/04/23 03:03:30;;;;;;;11.60;10.33;;;12.70;99.90;;;;;;6177739;23;20065;-86
2023/04/23 03:06:05;;;;;;;11.82;10.20;;;12.70;99.90;;;;;;6186228;23;20287;-89
2023/04/23 03:08:31;;;;;;;11.55;10.38;;;12.70;99.90;;;;;;6182780;23;20001;-88
2023/04/23 03:10:57;;;;;;;11.05;10.05;;;12.70;99.90;;;;;;6184547;23;20045;-87
2023/04/23 03:13:23;;;;;;;11.43;10.13;;;12.70;99.90;;;;;;6185586;23;20019;-88
2023/04/23 03:16:01;;;;;;;11.85;10.70;;;12.70;99.90;;;;;;6184447;23;20009;-88
2023/04/23 03:18:29;;;;;;;12.02;10.90;;;12.70;99.90;;;;;;6203302;23;20005;-87
2023/04/23 03:21:24;;;;;;;11.00;10.00;;;12.70;99.90;;;;;;6172047;23;20001;-89
2023/04/23 03:23:53;;;;;;;11.75;10.40;;;12.70;99.90;;;;;;6104333;23;20308;-89
2023/04/23 03:29:31;;;;;;;;;;;;;;;;;;;;;
2023/04/23 03:32:18;;;;;;;13.60;10.65;;;12.60;99.90;;;;;;6211304;23;19996;-88
2023/04/23 03:34:48;;;;;;;11.52;10.30;;;12.50;99.90;;;;;;6189836;23;20132;-89
2023/04/23 03:37:18;;;;;;;12.85;11.55;;;12.40;99.90;;;;;;6174381;23;20009;-89
2023/04/23 03:40:06;;;;;;;;;;;12.30;99.90;;;;;;6147595;23;20032;-90
2023/04/23 03:42:34;;;;;;;12.73;11.15;;;12.20;99.90;;;;;;6157024;23;19959;-88
2023/04/23 03:45:06;;;;;;;12.20;11.00;;;12.10;99.90;;;;;;6147963;23;20005;-88
2023/04/23 03:47:35;;;;;;;12.32;11.23;;;12.10;99.90;;;;;;6148682;23;20506;-89
2023/04/23 03:50:01;;;;;;;13.00;11.32;;;12.10;99.90;;;;;;6147530;23;20013;-88
2023/04/23 03:52:27;;;;;;;12.07;10.93;;;12.10;99.90;;;;;;6145723;23;20033;-89
2023/04/23 03:54:53;;;;;;;12.15;10.75;;;12.20;99.90;;;;;;6150026;23;20087;-89
2023/04/23 03:57:22;;;;;;;12.52;11.23;;;12.20;99.90;;;;;;6163277;23;20421;-88
2023/04/23 03:59:48;;;;;;;12.15;11.05;;;12.20;99.90;;;;;;6162248;23;20029;-88
2023/04/23 04:02:13;;;;;;;13.10;11.75;;;12.30;99.90;;;;;;6187116;23;20429;-89
2023/04/23 04:04:41;;;;;;;11.88;10.88;;;12.30;99.90;;;;;;6161223;23;20448;-90
2023/04/23 04:07:07;;;;;;;13.10;10.80;;;12.30;99.90;;;;;;6162797;23;20012;-89
2023/04/23 04:09:33;;;;;;;11.93;10.82;;;12.30;99.90;;;;;;6161370;23;20032;-89
2023/04/23 04:11:58;;;;;;;12.18;10.93;;;12.30;99.90;;;;;;6163621;23;20063;-89
2023/04/23 04:14:24;;;;;;;11.15;9.82;;;12.30;99.90;;;;;;6161874;23;20066;-88
2023/04/23 04:16:50;;;;;;;11.15;10.18;;;12.30;99.90;;;;;;6162070;23;20001;-89
2023/04/23 04:19:25;;;;;;;10.40;9.50;;;12.30;99.90;;;;;;6165249;23;20064;-89
2023/04/23 04:21:55;;;;;;;11.93;10.65;;;12.40;99.90;;;;;;6170475;23;20005;-88
2023/04/23 04:24:50;;;;;;;10.55;9.45;;;12.40;99.90;;;;;;6170503;23;20013;-89
2023/04/23 04:27:25;;;;;;;13.52;10.32;;;12.40;99.90;;;;;;6169944;23;20009;-89
2023/04/23 04:30:43;;;;;;;;;;;;;;;;;;;;;
2023/04/23 04:40:27;;;;;;;;;;;;;;;;;;;;;
2023/04/23 04:43:47;;;;;;;;;;;;;;;;;;;;;
2023/04/23 04:46:10;;;;;;;11.15;10.23;;;12.30;99.90;;;;;;6190594;23;20017;-88
2023/04/23 04:48:36;;;;;;;11.55;10.38;;;12.30;99.90;;;;;;6170582;23;20052;-87
2023/04/23 04:51:02;;;;;;;11.65;10.23;;;12.30;99.90;;;;;;6171642;23;20016;-88
2023/04/23 04:53:30;;;;;;;12.77;11.15;;;12.40;99.90;;;;;;6169766;23;20001;-88
2023/04/23 04:56:00;;;;;;;11.50;10.50;;;12.40;99.90;;;;;;6171008;23;20015;-89
2023/04/23 04:58:55;;;;;;;11.82;10.63;;;12.40;99.90;;;;;;6196209;23;20028;-89
2023/04/23 05:01:59;;;;;;;;;;;;;;;;;;;;;
2023/04/23 05:08:15;;;;;;;;;;;;;;;;;;;;;
2023/04/23 05:11:34;;;;;;;;;;;;;;;;;;;;;
2023/04/23 05:14:11;;;;;;;12.65;11.48;;;12.60;99.90;;;;;;6198226;23;20029;-89
2023/04/23 05:16:42;;;;;;;12.10;10.90;;;12.60;99.90;;;;;;6171603;23;20001;-88
2023/04/23 05:19:10;;;;;;;12.15;11.07;;;12.60;99.90;;;;;;6171038;23;20425;-87
2023/04/23 05:22:01;;;;;;;11.60;10.50;;;12.60;99.90;;;;;;6169812;23;20001;-87
2023/04/23 05:24:27;;;;;;;9.88;8.98;;;12.60;99.90;;;;;;6172020;23;20042;-88
2023/04/23 05:26:52;;;;;;;11.00;9.98;;;12.60;99.90;;;;;;6173421;23;20005;-88
2023/04/23 05:29:18;;;;;;;10.40;9.40;;;12.60;99.90;;;;;;6174124;23;20001;-88
2023/04/23 05:31:44;;;;;;;11.07;10.18;;;12.60;99.90;;;;;;6173040;23;20001;-87
2023/04/23 05:34:10;;;;;;;11.45;10.38;;;12.60;99.90;;;;;;6171170;23;20055;-88
2023/04/23 05:36:36;;;;;;;12.52;10.68;;;12.70;99.90;;;;;;6197829;23;20021;-87
2023/04/23 05:39:01;;;;;;;11.98;10.60;;;12.70;99.90;;;;;;6168240;23;20001;-88
2023/04/23 05:41:27;;;;;;;11.27;10.25;;;12.80;99.90;;;;;;6195309;23;20009;-88
2023/04/23 05:43:52;;;;;;;15.43;13.98;;;12.80;99.90;;;;;;6166991;23;20021;-88
2023/04/23 05:46:18;;;;;;;15.63;13.77;;;12.80;99.90;;;;;;6193604;23;20429;-88
2023/04/23 05:48:44;;;;;;;12.18;11.07;;;12.90;99.90;;;;;;6165501;23;20008;-88
2023/04/23 05:51:10;;;;;;;11.50;10.13;;;13.00;99.90;;;;;;6166360;23;20005;-88
2023/04/23 05:53:38;;;;;;;11.32;10.30;;;13.00;99.90;;;;;;6165737;23;20444;-88
2023/04/23 05:56:04;;;;;;;10.63;9.73;;;13.00;99.90;;;;;;6167438;23;20032;-87
2023/04/23 05:58:29;;;;;;;10.88;9.90;;;13.10;99.90;;;;;;6167815;23;20001;-88
2023/04/23 06:00:56;;;;;;;11.45;10.35;;;13.10;99.90;;;;;;6165821;23;20013;-89
2023/04/23 06:03:22;;;;;;;11.32;10.20;;;13.20;99.90;;;;;;6166707;23;20005;-89
2023/04/23 06:05:47;;;;;;;12.32;10.98;;;13.20;99.90;;;;;;6165450;23;20016;-90
2023/04/23 06:08:13;;;;;;;12.95;11.80;;;13.20;99.90;;;;;;6165282;23;20039;-89
2023/04/23 06:10:39;;;;;;;12.48;11.40;;;13.20;99.90;;;;;;6165238;23;20064;-89
2023/04/23 06:13:04;;;;;;;12.55;11.35;;;13.20;99.90;;;;;;6165701;23;20005;-89
2023/04/23 06:15:30;;;;;;;12.77;11.85;;;13.20;99.90;;;;;;6164690;23;20001;-89
2023/04/23 06:17:55;;;;;;;11.63;10.65;;;13.20;99.90;;;;;;6193307;23;20008;-89
2023/04/23 06:20:21;;;;;;;12.63;11.52;;;13.20;99.90;;;;;;6167283;23;20285;-88
2023/04/23 06:22:47;;;;;;;10.48;9.55;;;13.20;99.90;;;;;;6167892;23;20101;-88
2023/04/23 06:25:12;;;;;;;10.43;9.52;;;13.20;99.90;;;;;;6194129;23;20009;-88
2023/04/23 06:27:38;;;;;;;11.95;10.93;;;13.10;99.90;;;;;;6169090;23;20526;-87
2023/04/23 06:30:04;;;;;;;11.63;10.45;;;13.10;99.90;;;;;;6169113;23;20032;-88
2023/04/23 06:32:30;;;;;;;10.98;10.10;;;13.20;99.90;;;;;;6171164;23;20005;-88
2023/04/23 06:34:56;;;;;;;13.30;11.20;;;13.30;99.90;;;;;;6170838;23;20067;-88
2023/04/23 06:37:22;;;;;;;11.82;10.63;;;13.30;99.90;;;;;;6171077;23;20028;-88
2023/04/23 06:39:48;;;;;;;12.18;10.82;;;13.30;99.90;;;;;;6168749;23;20016;-88
2023/04/23 06:42:13;;;;;;;11.02;10.23;;;13.30;99.90;;;;;;6169031;23;20080;-88
2023/04/23 06:44:39;;;;;;;12.30;10.90;;;13.30;99.90;;;;;;6170969;23;20009;-88
2023/04/23 06:47:05;;;;;;;11.23;10.13;;;13.40;99.90;;;;;;6169257;23;20067;-87
2023/04/23 06:49:30;;;;;;;11.15;9.85;;;13.40;99.90;;;;;;6176128;23;20017;-87
2023/04/23 06:51:56;;;;;;;9.90;8.98;;;13.40;99.90;;;;;;6206716;23;20076;-88
2023/04/23 06:54:21;;;;;;;9.77;8.88;;;13.30;99.90;;;;;;6211730;23;20035;-88
2023/04/23 06:56:47;;;;;;;9.35;8.55;;;13.40;99.90;;;;;;6185735;23;20005;-86
2023/04/23 06:59:13;;;;;;;11.32;8.82;;;13.50;99.90;;;;;;6180836;23;20081;-87
2023/04/23 07:01:38;;;;;;;11.77;9.05;;;13.50;99.90;;;;;;6187144;23;20064;-88
2023/04/23 07:04:11;;;;;;;9.32;8.48;;;13.50;99.90;;;;;;6175945;23;20013;-88
2023/04/23 07:06:37;;;;;;;9.80;8.88;;;13.60;99.90;;;;;;6166903;23;19997;-87
2023/04/23 07:09:03;;;;;;;9.52;8.60;;;13.70;99.90;;;;;;6167257;23;20012;-88
2023/04/23 07:11:30;;;;;;;9.35;8.55;;;13.90;99.90;;;;;;6169082;23;20052;-87
2023/04/23 07:13:56;;;;;;;9.07;8.27;;;13.90;99.90;;;;;;6169087;23;20008;-87
2023/04/23 07:16:23;;;;;;;9.10;8.30;;;14.00;99.90;;;;;;6169820;23;20004;-88
2023/04/23 07:18:49;;;;;;;9.02;8.18;;;14.00;99.90;;;;;;6168064;23;20001;-88
2023/04/23 07:21:19;;;;;;;9.98;8.57;;;14.00;99.90;;;;;;6193722;23;20001;-88
2023/04/23 07:23:47;;;;;;;9.77;8.98;;;13.90;99.90;;;;;;6167898;23;20119;-88
2023/04/23 07:26:13;;;;;;;9.85;9.02;;;13.80;99.90;;;;;;6196897;23;20062;-88
2023/04/23 07:29:00;;;;;;;10.32;9.32;;;13.70;99.90;;;;;;6165626;23;20332;-89
2023/04/23 07:31:36;;;;;;;10.20;9.25;;;13.70;99.90;;;;;;6166906;23;20004;-89
2023/04/23 07:34:51;;;;;;;11.57;10.45;;;13.60;99.90;;;;;;6168106;23;20005;-87
2023/04/23 07:37:21;;;;;;;11.48;10.35;;;13.60;99.90;;;;;;6158133;23;20001;-88
2023/04/23 07:39:46;;;;;;;11.25;10.25;;;13.50;99.90;;;;;;6159701;23;19997;-88
2023/04/23 07:42:12;;;;;;;11.73;10.50;;;13.50;99.90;;;;;;6158350;23;20005;-87
2023/04/23 07:44:37;;;;;;;12.35;11.15;;;13.40;99.90;;;;;;6185239;23;20008;-87
2023/04/23 07:47:03;;;;;;;11.93;10.82;;;13.40;99.90;;;;;;6184162;23;20488;-87
2023/04/23 07:49:29;;;;;;;13.02;11.65;;;13.50;99.90;;;;;;6185893;23;20325;-87
2023/04/23 07:51:55;;;;;;;14.63;12.85;;;13.50;99.90;;;;;;6159797;23;20074;-86
2023/04/23 07:54:21;;;;;;;12.57;11.43;;;13.60;99.90;;;;;;6185333;23;20076;-86
2023/04/23 07:56:46;;;;;;;13.02;11.85;;;13.70;99.90;;;;;;6159443;23;20354;-87
2023/04/23 07:59:12;;;;;;;13.35;12.18;;;13.80;99.90;;;;;;6159060;23;20087;-87
2023/04/23 08:01:37;;;;;;;11.68;10.68;;;13.80;99.90;;;;;;6185520;23;20001;-87
2023/04/23 08:04:03;;;;;;;13.13;11.80;;;13.80;99.90;;;;;;6185199;23;20015;-86
2023/04/23 08:06:30;;;;;;;13.20;11.95;;;13.80;99.90;;;;;;6185384;23;20050;-88
2023/04/23 08:08:59;;;;;;;13.30;12.13;;;13.70;99.90;;;;;;6186373;23;20363;-88
2023/04/23 08:11:24;;;;;;;13.00;11.73;;;13.70;99.90;;;;;;6162042;23;20021;-87
2023/04/23 08:13:50;;;;;;;12.82;11.73;;;13.70;99.90;;;;;;6162028;23;20467;-88
2023/04/23 08:16:15;;;;;;;13.60;12.40;;;13.80;99.90;;;;;;6160102;23;20009;-87
2023/04/23 08:18:41;;;;;;;13.25;11.95;;;13.80;99.90;;;;;;6158828;23;20005;-86
2023/04/23 08:21:06;;;;;;;12.13;11.13;;;13.80;99.90;;;;;;6160352;23;20051;-87
2023/04/23 08:23:32;;;;;;;12.27;11.27;;;13.80;99.90;;;;;;6159968;23;20091;-88
2023/04/23 08:25:57;;;;;;;12.57;11.57;;;13.80;99.90;;;;;;6185855;23;20435;-88
2023/04/23 08:28:23;;;;;;;13.27;12.18;;;13.70;99.90;;;;;;6161657;23;20023;-88
2023/04/23 08:30:49;;;;;;;10.45;8.45;;;13.70;99.90;;;;;;6155229;23;20005;-88
2023/04/23 08:33:17;;;;;;;6.85;6.25;;;13.50;99.90;;;;;;6160331;23;20012;-88
2023/04/23 08:35:45;;;;;;;4.05;3.75;;;13.40;99.90;;;;;;6192988;23;20009;-88
2023/04/23 08:38:11;;;;;;;4.00;3.63;;;13.20;99.90;;;;;;6174778;23;20015;-86
2023/04/23 08:40:39;;;;;;;4.22;3.80;;;13.10;99.90;;;;;;6211561;23;20009;-87
2023/04/23 08:43:17;;;;;;;3.17;2.97;;;13.00;99.90;;;;;;6211070;23;19995;-87
2023/04/23 08:45:46;;;;;;;4.35;3.95;;;12.90;99.90;;;;;;6179558;23;20428;-87
2023/04/23 08:48:13;;;;;;;4.55;4.25;;;12.80;99.90;;;;;;6161869;23;19997;-90
2023/04/23 08:50:42;;;;;;;4.68;4.38;;;12.90;99.90;;;;;;6162376;23;20055;-87
2023/04/23 08:53:08;;;;;;;4.77;4.37;;;12.90;99.90;;;;;;6190305;23;20004;-88
2023/04/23 08:55:35;;;;;;;4.53;4.20;;;12.90;99.90;;;;;;6157074;23;20239;-88
2023/04/23 08:58:05;;;;;;;4.72;4.32;;;13.00;99.90;;;;;;6161747;23;20021;-88
2023/04/23 09:00:34;;;;;;;5.43;5.03;;;13.00;99.90;;;;;;6161981;23;20005;-88
2023/04/23 09:03:02;;;;;;;5.33;4.93;;;13.00;99.90;;;;;;6161456;23;20005;-88
2023/04/23 09:06:34;;;;;;;5.45;5.05;;;13.10;99.90;;;;;;6166303;23;20001;-88
2023/04/23 09:09:14;;;;;;;6.00;5.50;;;13.10;99.90;;;;;;6152250;23;20001;-88
2023/04/23 09:11:55;;;;;;;6.47;5.95;;;13.00;99.90;;;;;;6168117;23;20020;-89
2023/04/23 09:14:28;;;;;;;7.75;7.03;;;13.10;99.90;;;;;;6166226;23;20012;-89
2023/04/23 09:16:54;;;;;;;8.30;7.70;;;13.30;99.90;;;;;;6188759;23;20421;-88
2023/04/23 09:19:20;;;;;;;8.80;8.18;;;13.50;99.90;;;;;;6160206;23;20040;-87
2023/04/23 09:21:45;;;;;;;8.77;8.18;;;13.50;99.90;;;;;;6164408;23;20016;-87
2023/04/23 09:24:11;;;;;;;11.10;10.20;;;13.70;99.90;;;;;;6162003;23;20005;-87
2023/04/23 09:26:48;;;;;;;16.38;14.77;;;13.80;99.90;;;;;;6158814;23;20067;-88
2023/04/23 09:29:17;;;;;;;19.17;17.45;;;13.70;99.90;;;;;;6159517;23;20001;-87
2023/04/23 09:31:53;;;;;;;16.65;15.25;;;13.60;99.90;;;;;;6187072;23;20072;-87
2023/04/23 09:34:21;;;;;;;16.98;15.38;;;13.50;99.90;;;;;;6160295;23;20036;-87
2023/04/23 09:36:49;;;;;;;15.20;13.80;;;13.30;99.90;;;;;;6188830;23;20012;-88
2023/04/23 09:39:18;;;;;;;14.27;12.98;;;13.30;99.90;;;;;;6189542;23;20001;-87
2023/04/23 09:41:47;;;;;;;16.02;14.48;;;13.30;99.90;;;;;;6190517;23;20008;-89
2023/04/23 09:44:18;;;;;;;16.73;15.13;;;13.30;99.90;;;;;;6163109;23;20021;-87
2023/04/23 09:46:44;;;;;;;17.92;16.25;;;13.20;99.90;;;;;;6190969;23;20584;-89
2023/04/23 09:49:11;;;;;;;19.75;17.95;;;13.20;99.90;;;;;;6163213;23;20012;-87
2023/04/23 09:51:41;;;;;;;19.02;17.40;;;13.20;99.90;;;;;;6160932;23;20009;-87
2023/04/23 09:54:21;;;;;;;19.38;17.58;;;13.20;99.90;;;;;;6165112;23;20098;-86
2023/04/23 09:56:55;;;;;;;18.23;16.50;;;13.30;99.90;;;;;;6162980;23;20015;-87
2023/04/23 09:59:26;;;;;;;17.75;16.15;;;13.50;99.90;;;;;;6163876;23;20001;-87
2023/04/23 10:01:53;;;;;;;15.75;14.35;;;13.80;99.90;;;;;;6162817;23;20069;-87
2023/04/23 10:04:23;;;;;;;15.35;13.98;;;14.00;99.90;;;;;;6188441;23;20416;-90
2023/04/23 10:06:57;;;;;;;16.35;14.95;;;14.20;99.90;;;;;;6190704;23;20452;-88
2023/04/23 10:09:23;;;;;;;15.90;14.50;;;14.40;99.90;;;;;;6193391;23;20079;-87
2023/04/23 10:12:02;;;;;;;15.85;14.45;;;14.50;99.90;;;;;;6184684;23;20416;-86
2023/04/23 10:14:29;;;;;;;14.75;13.45;;;14.70;99.90;;;;;;6213331;23;20039;-85
2023/04/23 10:17:01;;;;;;;17.20;15.80;;;14.90;99.90;;;;;;6211956;23;20005;-86
2023/04/23 10:19:27;;;;;;;16.95;15.45;;;15.10;99.90;;;;;;6174751;23;20084;-89
2023/04/23 10:22:07;;;;;;;17.42;15.90;;;15.30;99.90;;;;;;6159585;23;20032;-88
2023/04/23 10:24:36;;;;;;;15.75;14.45;;;15.50;99.90;;;;;;6160265;23;20009;-88
2023/04/23 10:27:03;;;;;;;17.58;16.08;;;15.60;99.90;;;;;;6154127;23;20092;-86
2023/04/23 10:29:31;;;;;;;18.20;16.67;;;15.70;99.90;;;;;;6185810;23;20001;-85
2023/04/23 10:32:02;;;;;;;15.60;14.30;;;15.70;99.90;;;;;;6159504;23;20087;-86
2023/04/23 10:34:29;;;;;;;16.95;15.45;;;15.40;99.90;;;;;;6159548;23;20083;-86
2023/04/23 10:36:58;;;;;;;17.38;15.85;;;15.10;99.90;;;;;;6185825;23;20063;-86
2023/04/23 10:39:26;;;;;;;16.52;15.05;;;14.80;99.90;;;;;;6185556;23;20005;-86
2023/04/23 10:41:54;;;;;;;16.60;15.25;;;14.90;99.90;;;;;;6159523;23;20009;-86
2023/04/23 10:44:20;;;;;;;17.55;16.00;;;14.80;99.90;;;;;;6159349;23;20009;-86
2023/04/23 10:46:56;;;;;;;18.75;16.85;;;14.70;99.90;;;;;;6159044;23;20009;-87
2023/04/23 10:49:23;;;;;;;16.45;14.82;;;14.90;99.90;;;;;;6159235;23;20425;-86
2023/04/23 10:51:57;;;;;;;16.50;14.95;;;14.90;99.90;;;;;;6159621;23;20015;-85
2023/04/23 10:54:30;;;;;;;15.07;13.88;;;15.20;99.90;;;;;;6185371;23;20009;-86
2023/04/23 10:57:04;;;;;;;16.35;15.02;;;15.30;99.90;;;;;;6186170;23;20012;-87
2023/04/23 10:59:31;;;;;;;17.52;15.93;;;15.40;99.90;;;;;;6185031;23;20008;-86
2023/04/23 11:02:04;;;;;;;17.27;15.68;;;15.40;99.90;;;;;;6185548;23;20054;-85
2023/04/23 11:04:30;;;;;;;17.88;16.20;;;15.50;99.90;;;;;;6158844;23;20037;-85
2023/04/23 11:06:59;;;;;;;16.23;14.82;;;15.70;99.90;;;;;;6159046;23;20000;-87
2023/04/23 11:09:41;;;;;;;17.27;15.70;;;15.80;99.90;;;;;;6158643;23;20005;-86
2023/04/23 11:12:10;;;;;;;16.73;15.23;;;16.20;99.90;;;;;;6185008;23;19997;-86
2023/04/23 11:14:47;;;;;;;14.88;13.68;;;16.60;99.90;;;;;;6184865;23;20012;-86
2023/04/23 11:17:14;;;;;;;15.40;14.00;;;16.70;99.90;;;;;;6184909;23;20483;-86
2023/04/23 11:19:41;;;;;;;15.52;14.02;;;16.60;99.90;;;;;;6158871;23;20088;-86
2023/04/23 11:22:15;;;;;;;16.90;15.50;;;16.30;99.90;;;;;;6158812;23;20012;-86
2023/04/23 11:24:42;;;;;;;17.50;16.00;;;15.80;99.90;;;;;;6158824;23;20016;-86
2023/04/23 11:27:10;;;;;;;18.40;16.70;;;15.70;99.90;;;;;;6184948;23;20017;-86
2023/04/23 11:29:38;;;;;;;17.55;16.05;;;15.80;99.90;;;;;;6158873;23;20012;-86
2023/04/23 11:32:09;;;;;;;15.95;14.65;;;16.40;99.90;;;;;;6185231;23;20009;-86
2023/04/23 11:34:35;;;;;;;15.77;14.35;;;16.80;99.90;;;;;;6157718;23;20029;-86
2023/04/23 11:37:02;;;;;;;15.45;14.18;;;17.00;99.90;;;;;;6185390;23;20005;-87
2023/04/23 11:39:27;;;;;;;15.80;14.43;;;17.30;99.90;;;;;;6184661;23;20039;-86
2023/04/23 11:41:53;;;;;;;16.10;14.80;;;17.60;99.90;;;;;;6158560;23;20005;-86
2023/04/23 11:44:20;;;;;;;14.32;13.13;;;17.70;99.90;;;;;;6158378;23;20306;-87
2023/04/23 11:46:47;;;;;;;15.88;14.35;;;18.10;99.90;;;;;;6184654;23;20009;-85
2023/04/23 11:49:13;;;;;;;14.98;13.68;;;18.80;99.90;;;;;;6184931;23;20417;-87
2023/04/23 11:51:43;;;;;;;14.52;13.30;;;18.80;99.90;;;;;;6157815;23;20009;-86
2023/04/23 11:54:09;;;;;;;;;;;18.70;99.90;;;;;;6185155;23;19997;-87
2023/04/23 11:56:36;;;;;;;14.98;13.55;;;18.80;99.90;;;;;;6159182;23;19900;-86
2023/04/23 11:59:03;;;;;;;13.75;12.60;;;18.90;99.90;;;;;;6184175;23;20061;-87
2023/04/23 12:01:41;;;;;;;11.05;9.98;;;18.70;99.90;;;;;;6158569;23;20501;-87
2023/04/23 12:04:11;;;;;;;9.70;8.90;;;19.00;99.90;;;;;;6156720;23;20027;-86
2023/04/23 12:06:38;;;;;;;10.88;9.93;;;19.00;99.90;;;;;;6182410;23;20328;-86
2023/04/23 12:09:04;;;;;;;10.70;9.70;;;19.10;99.90;;;;;;6159269;23;20087;-86
2023/04/23 12:11:30;;;;;;;10.63;9.70;;;19.10;99.90;;;;;;6185232;23;20001;-88
2023/04/23 12:13:56;;;;;;;8.35;7.55;;;18.90;99.90;;;;;;6184790;23;20028;-87
2023/04/23 12:16:35;;;;;;;7.07;6.53;;;18.50;99.90;;;;;;6158557;23;20005;-86
2023/04/23 12:19:01;;;;;;;8.07;7.38;;;18.80;99.90;;;;;;6158676;23;20013;-86
2023/04/23 12:21:28;;;;;;;8.20;7.50;;;19.20;99.90;;;;;;6184929;23;20024;-88
2023/04/23 12:23:55;;;;;;;7.65;6.95;;;19.20;99.90;;;;;;6157994;23;20013;-87
2023/04/23 12:26:23;;;;;;;8.25;7.45;;;19.10;99.90;;;;;;6158299;23;20008;-86
2023/04/23 12:28:58;;;;;;;8.27;7.60;;;19.40;99.90;;;;;;6158022;23;20008;-88
2023/04/23 12:31:28;;;;;;;8.02;7.32;;;19.40;99.90;;;;;;6158905;23;20028;-87
2023/04/23 12:34:06;;;;;;;8.18;7.50;;;19.40;99.90;;;;;;6158406;23;20019;-87
2023/04/23 12:36:34;;;;;;;7.18;6.57;;;19.30;99.90;;;;;;6158315;23;20036;-88
2023/04/23 12:39:26;;;;;;;7.25;6.63;;;19.00;99.90;;;;;;6158030;23;20009;-87
2023/04/23 12:42:11;;;;;;;7.03;6.43;;;18.50;99.90;;;;;;6158676;23;20433;-88
2023/04/23 12:44:38;;;;;;;8.02;7.32;;;18.40;99.90;;;;;;6183974;23;20013;-87
2023/04/23 12:47:10;;;;;;;7.47;6.78;;;18.20;99.90;;;;;;6185293;23;20015;-86
2023/04/23 12:49:37;;;;;;;6.40;5.80;;;18.40;99.90;;;;;;6185570;23;20021;-88
2023/04/23 12:52:06;;;;;;;5.85;5.35;;;18.60;99.90;;;;;;6158108;23;20005;-87
2023/04/23 12:54:36;;;;;;;5.18;4.68;;;18.70;99.90;;;;;;6184389;23;20005;-88
2023/04/23 12:57:02;;;;;;;4.82;4.43;;;18.90;99.90;;;;;;6185432;23;20032;-88
2023/04/23 12:59:29;;;;;;;3.83;3.53;;;18.80;99.90;;;;;;6158949;23;20120;-87
2023/04/23 13:01:55;;;;;;;4.00;3.70;;;18.90;99.90;;;;;;6183880;23;20479;-86
2023/04/23 13:04:20;;;;;;;3.85;3.55;;;18.90;99.90;;;;;;6184120;23;20001;-87
2023/04/23 13:06:46;;;;;;;4.28;3.95;;;18.90;99.90;;;;;;6158128;23;19997;-87
2023/04/23 13:09:12;;;;;;;5.57;4.30;;;18.90;99.90;;;;;;6157754;23;19997;-87
2023/04/23 13:11:39;;;;;;;3.80;3.47;;;18.60;99.90;;;;;;6160803;23;20087;-88
2023/04/23 13:14:04;;;;;;;3.55;3.25;;;18.50;99.90;;;;;;6159575;23;20020;-88
2023/04/23 13:16:30;;;;;;;4.05;3.67;;;18.40;99.90;;;;;;6161501;23;20083;-86
2023/04/23 13:18:56;;;;;;;3.90;3.60;;;18.40;99.90;;;;;;6187204;23;20008;-86
2023/04/23 13:21:21;;;;;;;4.32;3.92;;;18.50;99.90;;;;;;6162533;23;20063;-86
2023/04/23 13:23:55;;;;;;;4.85;4.45;;;18.30;99.90;;;;;;6191779;23;20001;-89
2023/04/23 13:26:24;;;;;;;4.90;4.50;;;18.20;99.90;;;;;;6172462;23;20025;-89
2023/04/23 13:28:53;;;;;;;5.03;4.60;;;18.00;99.90;;;;;;6172164;23;20001;-88
2023/04/23 13:31:19;;;;;;;4.28;3.88;;;18.10;99.90;;;;;;6184679;23;20016;-88
2023/04/23 13:33:44;;;;;;;5.25;4.75;;;18.10;99.90;;;;;;6185754;23;19981;-89
2023/04/23 13:36:10;;;;;;;4.28;3.90;;;17.70;99.90;;;;;;6186322;23;20056;-89
2023/04/23 13:38:36;;;;;;;4.43;4.03;;;17.50;99.90;;;;;;6176691;23;20040;-87
2023/04/23 13:41:01;;;;;;;4.22;3.78;;;17.30;99.90;;;;;;6162965;23;20024;-86
2023/04/23 13:43:27;;;;;;;4.22;3.83;;;17.20;99.90;;;;;;6165960;23;20054;-89
2023/04/23 13:45:53;;;;;;;3.90;3.60;;;17.40;99.90;;;;;;6171479;23;20349;-89
2023/04/23 13:48:19;;;;;;;5.03;3.70;;;17.70;99.90;;;;;;6170336;23;20451;-89
2023/04/23 13:50:45;;;;;;;2.92;2.72;;;18.20;99.90;;;;;;6169845;23;20068;-90
2023/04/23 13:53:12;;;;;;;3.65;3.35;;;18.50;99.90;;;;;;6170807;23;20045;-89
2023/04/23 14:03:23;;;;;;;4.25;2.90;;;18.20;99.90;;;;;;6131125;23;20009;-85
2023/04/23 14:05:49;;;;;;;2.47;2.28;;;18.40;99.90;;;;;;6161681;23;20081;-86
2023/04/23 14:08:15;;;;;;;2.30;2.10;;;18.50;99.90;;;;;;6159340;23;20039;-85
2023/04/23 14:10:41;;;;;;;2.35;2.15;;;18.60;99.90;;;;;;6186759;23;20011;-86
2023/04/23 14:13:06;;;;;;;2.60;2.40;;;18.50;99.90;;;;;;6185373;23;20009;-87
2023/04/23 14:15:32;;;;;;;2.88;2.53;;;18.50;99.90;;;;;;6161077;23;20004;-86
2023/04/23 14:17:58;;;;;;;3.17;2.85;;;18.50;99.90;;;;;;6158912;23;20048;-87
2023/04/23 14:20:24;;;;;;;2.70;2.50;;;18.40;99.90;;;;;;6187102;23;20005;-87
2023/04/23 14:22:55;;;;;;;3.58;2.28;;;18.40;99.90;;;;;;6162478;23;20039;-87
2023/04/23 14:25:48;;;;;;;1.98;1.73;;;18.50;99.90;;;;;;6190168;23;19997;-87
2023/04/23 14:28:26;;;;;;;3.15;2.00;;;18.50;99.90;;;;;;6124075;23;20317;-86
2023/04/23 14:30:55;;;;;;;2.15;1.80;;;18.40;99.90;;;;;;6187218;23;20005;-86
2023/04/23 14:33:20;;;;;;;2.67;1.80;;;18.40;99.90;;;;;;6161041;23;20005;-86
2023/04/23 14:35:46;;;;;;;2.25;2.00;;;18.20;99.90;;;;;;6161027;23;20009;-86
2023/04/23 14:38:11;;;;;;;3.22;1.83;;;18.00;99.90;;;;;;6191388;23;19997;-88
2023/04/23 14:40:37;;;;;;;2.35;1.92;;;17.80;99.90;;;;;;6165751;23;20092;-86
2023/04/23 14:43:03;;;;;;;1.67;1.58;;;17.80;99.90;;;;;;6190846;23;20401;-87
2023/04/23 14:45:30;;;;;;;2.97;1.70;;;17.70;99.90;;;;;;6190780;23;20325;-87
2023/04/23 14:47:55;;;;;;;1.60;1.50;;;17.60;99.90;;;;;;6191485;23;20081;-86
2023/04/23 14:50:24;;;;;;;3.78;1.70;;;17.50;99.90;;;;;;6165436;23;20374;-88
2023/04/23 14:52:51;;;;;;;2.22;1.35;;;17.50;99.90;;;;;;6192919;23;20044;-88
2023/04/23 14:55:16;;;;;;;4.32;1.60;;;17.60;99.90;;;;;;6161922;23;20044;-87
2023/04/23 14:57:43;;;;;;;1.50;1.40;;;17.60;99.90;;;;;;6168551;23;20032;-86
2023/04/23 15:00:12;;;;;;;1.83;1.63;;;17.60;99.90;;;;;;6190951;23;20031;-87
2023/04/23 15:06:09;;;;;;;1.35;1.25;;;17.60;99.90;;;;;;6037962;23;20440;-89
2023/04/23 15:23:22;;;;;;;2.20;1.60;;;17.50;99.90;;;;;;5995250;23;20487;-88
2023/04/23 15:25:51;;;;;;;1.33;1.20;;;17.50;99.90;;;;;;5993493;23;20004;-89
2023/04/23 15:38:57;;;;;;;;;;;;;;;;;;;;;
2023/04/23 15:42:04;;;;;;;1.52;1.25;;;17.40;99.90;;;;;;6046850;23;20038;-89
2023/04/23 15:44:30;;;;;;;1.60;1.50;;;17.40;99.90;;;;;;5973667;23;20344;-87
2023/04/23 15:46:55;;;;;;;1.30;1.20;;;17.30;99.90;;;;;;6134636;23;20461;-86
2023/04/23 15:49:21;;;;;;;1.35;1.23;;;17.20;99.90;;;;;;6132335;23;19998;-86
2023/04/23 15:51:58;;;;;;;2.80;1.30;;;16.90;99.90;;;;;;6132779;23;20119;-87
2023/04/23 15:54:24;;;;;;;1.50;1.40;;;16.90;99.90;;;;;;6130425;23;20024;-86
2023/04/23 15:56:50;;;;;;;1.40;1.30;;;16.80;99.90;;;;;;6132965;23;20086;-86
2023/04/23 15:59:15;;;;;;;2.97;1.63;;;16.60;99.90;;;;;;6133146;23;20033;-85
2023/04/23 16:01:41;;;;;;;2.70;2.00;;;16.60;99.90;;;;;;6157525;23;20004;-86
2023/04/23 16:04:07;;;;;;;1.63;1.52;;;16.70;99.90;;;;;;6131771;23;20409;-85
2023/04/23 16:06:32;;;;;;;2.35;1.58;;;16.60;99.90;;;;;;6132618;23;20063;-85
2023/04/23 16:08:58;;;;;;;2.70;1.77;;;16.70;99.90;;;;;;6130082;23;20036;-85
2023/04/23 16:11:27;;;;;;;5.07;2.10;;;16.80;99.90;;;;;;6128593;23;20502;-85
2023/04/23 16:13:56;;;;;;;2.55;1.25;;;16.90;99.90;;;;;;6131940;23;20332;-86
2023/04/23 16:16:22;;;;;;;1.75;1.35;;;16.90;99.90;;;;;;6135520;23;20001;-85
2023/04/23 16:18:48;;;;;;;2.33;1.67;;;17.10;99.90;;;;;;6134514;23;20013;-86
2023/04/23 16:21:14;;;;;;;2.15;1.45;;;17.10;99.90;;;;;;6138219;23;20016;-86
2023/04/23 16:23:42;;;;;;;1.70;1.40;;;17.10;99.90;;;;;;6139467;23;20002;-86
2023/04/23 16:26:10;;;;;;;1.90;1.40;;;17.00;99.90;;;;;;6138818;23;20006;-87
2023/04/23 16:29:02;;;;;;;2.03;1.60;;;16.90;99.90;;;;;;6134056;23;20006;-88
2023/04/23 16:31:50;;;;;;;1.85;1.48;;;16.80;99.90;;;;;;6127287;23;20006;-89
2023/04/23 16:34:18;;;;;;;1.50;1.40;;;16.60;99.90;;;;;;6129459;23;20060;-86